createdAt,value
2022-10-02T00:02:32.850Z,2.85
2022-10-02T00:05:37.482Z,3.28
2022-10-02T00:08:24.193Z,3.00
2022-10-02T00:11:08.024Z,2.70
2022-10-02T00:13:41.518Z,3.08
2022-10-02T00:16:16.257Z,3.38
2022-10-02T00:18:43.162Z,3.15
2022-10-02T00:21:16.174Z,2.85
2022-10-02T00:23:46.572Z,2.80
2022-10-02T00:26:22.398Z,3.22
2022-10-02T00:29:02.564Z,3.25
2022-10-02T00:31:50.732Z,3.10
2022-10-02T00:34:36.087Z,2.97
2022-10-02T00:37:20.898Z,3.30
2022-10-02T00:40:09.868Z,3.03
2022-10-02T00:42:48.931Z,2.85
2022-10-02T00:45:49.298Z,3.33
2022-10-02T00:48:19.335Z,3.20
2022-10-02T00:50:59.584Z,2.92
2022-10-02T00:53:30.591Z,3.33
2022-10-02T00:56:04.435Z,3.20
2022-10-02T00:59:05.841Z,2.83
2022-10-02T01:01:54.685Z,3.20
2022-10-02T01:04:28.800Z,3.00
2022-10-02T01:06:56.082Z,3.60
2022-10-02T01:09:23.909Z,2.67
2022-10-02T01:11:51.424Z,3.03
2022-10-02T01:14:18.388Z,3.00
2022-10-02T01:16:45.545Z,3.58
2022-10-02T01:19:25.253Z,2.75
2022-10-02T01:21:55.729Z,3.10
2022-10-02T01:24:25.605Z,3.40
2022-10-02T01:26:52.496Z,3.53
2022-10-02T01:29:19.376Z,3.25
2022-10-02T01:31:46.367Z,2.78
2022-10-02T01:34:13.382Z,2.97
2022-10-02T01:36:40.387Z,3.10
2022-10-02T01:39:07.415Z,3.55
2022-10-02T01:41:41.455Z,3.05
2022-10-02T01:44:08.727Z,3.20
2022-10-02T01:46:55.387Z,3.20
2022-10-02T01:49:40.610Z,2.83
2022-10-02T01:52:35.430Z,3.53
2022-10-02T01:55:14.358Z,3.78
2022-10-02T01:58:14.052Z,2.60
2022-10-02T02:01:01.806Z,3.00
2022-10-02T02:04:00.628Z,2.75
2022-10-02T02:06:48.602Z,3.00
2022-10-02T02:09:36.804Z,2.90
2022-10-02T02:12:12.397Z,2.58
2022-10-02T02:14:51.816Z,2.92
2022-10-02T02:17:26.604Z,2.90
2022-10-02T02:20:01.942Z,2.65
2022-10-02T02:22:30.643Z,2.60
2022-10-02T02:25:09.618Z,2.70
2022-10-02T02:27:39.543Z,2.50
2022-10-02T02:30:08.668Z,2.80
2022-10-02T02:32:36.815Z,2.90
2022-10-02T02:35:15.492Z,3.08
2022-10-02T02:37:42.427Z,3.30
2022-10-02T02:40:12.373Z,2.63
2022-10-02T02:42:42.522Z,2.88
2022-10-02T02:45:17.325Z,2.88
2022-10-02T02:47:56.748Z,3.03
2022-10-02T02:50:26.892Z,2.75
2022-10-02T02:52:56.460Z,2.40
2022-10-02T02:55:31.412Z,2.50
2022-10-02T02:58:01.347Z,2.78
2022-10-02T03:00:28.223Z,2.38
2022-10-02T03:02:55.664Z,3.03
2022-10-02T03:05:24.297Z,2.47
2022-10-02T03:07:52.937Z,2.50
2022-10-02T03:10:43.302Z,2.70
2022-10-02T03:13:37.846Z,3.03
2022-10-02T03:16:20.695Z,2.30
2022-10-02T03:18:47.605Z,2.58
2022-10-02T03:21:48.215Z,2.58
2022-10-02T03:24:26.415Z,2.78
2022-10-02T03:27:14.425Z,2.50
2022-10-02T03:29:45.481Z,2.50
2022-10-02T03:32:12.615Z,2.45
2022-10-02T03:34:39.509Z,2.60
2022-10-02T03:37:06.436Z,2.63
2022-10-02T03:39:33.342Z,2.97
2022-10-02T03:42:00.554Z,2.45
2022-10-02T03:44:27.611Z,2.55
2022-10-02T03:46:54.713Z,2.65
2022-10-02T03:49:21.764Z,2.65
2022-10-02T03:51:48.701Z,2.50
2022-10-02T03:54:20.096Z,2.45
2022-10-02T03:56:54.615Z,2.40
2022-10-02T03:59:33.553Z,2.53
2022-10-02T04:02:00.652Z,2.50
2022-10-02T04:04:32.045Z,2.20
2022-10-02T04:07:06.463Z,2.38
2022-10-02T04:09:48.339Z,2.20
2022-10-02T04:14:57.973Z,2.65
2022-10-02T04:17:33.175Z,2.50
2022-10-02T04:20:02.899Z,2.65
2022-10-02T04:22:39.268Z,2.72
2022-10-02T04:25:24.003Z,2.53
2022-10-02T04:28:03.670Z,2.17
2022-10-02T04:30:30.547Z,2.50
2022-10-02T04:33:11.329Z,2.17
2022-10-02T04:36:04.581Z,2.58
2022-10-02T04:38:48.197Z,2.28
2022-10-02T04:41:43.670Z,2.65
2022-10-02T04:44:10.608Z,2.60
2022-10-02T04:46:53.355Z,2.85
2022-10-02T04:49:40.420Z,2.47
2022-10-02T04:52:41.148Z,2.97
2022-10-02T04:55:43.639Z,2.65
2022-10-02T04:58:10.558Z,2.42
2022-10-02T05:00:45.854Z,2.22
2022-10-02T05:03:32.502Z,2.60
2022-10-02T05:06:12.213Z,2.90
2022-10-02T05:08:54.891Z,2.70
2022-10-02T05:11:37.083Z,2.50
2022-10-02T05:14:21.420Z,2.80
2022-10-02T05:17:27.889Z,2.35
2022-10-02T05:20:13.506Z,2.65
2022-10-02T05:22:55.830Z,2.80
2022-10-02T05:25:57.968Z,2.33
2022-10-02T05:29:05.899Z,2.67
2022-10-02T05:32:02.046Z,2.50
2022-10-02T05:34:49.773Z,2.53
2022-10-02T05:37:23.077Z,2.45
2022-10-02T05:40:25.250Z,2.35
2022-10-02T05:43:06.702Z,2.53
2022-10-02T05:45:37.758Z,2.40
2022-10-02T05:48:27.609Z,2.40
2022-10-02T05:50:59.449Z,2.50
2022-10-02T05:56:00.481Z,2.60
2022-10-02T05:59:09.990Z,2.60
2022-10-02T06:01:42.333Z,2.60
2022-10-02T06:04:23.569Z,2.22
2022-10-02T06:06:51.752Z,2.40
2022-10-02T06:09:28.693Z,3.00
2022-10-02T06:12:00.145Z,2.33
2022-10-02T06:14:37.324Z,2.83
2022-10-02T06:17:23.822Z,2.60
2022-10-02T06:20:04.195Z,2.50
2022-10-02T06:23:02.439Z,2.55
2022-10-02T06:25:32.600Z,2.60
2022-10-02T06:28:02.954Z,3.22
2022-10-02T06:30:30.444Z,2.80
2022-10-02T06:33:26.339Z,3.15
2022-10-02T06:35:59.487Z,2.50
2022-10-02T06:38:56.739Z,2.75
2022-10-02T06:41:26.810Z,2.75
2022-10-02T06:44:05.850Z,3.00
2022-10-02T06:46:39.355Z,2.60
2022-10-02T06:49:46.446Z,2.80
2022-10-02T06:52:19.330Z,2.80
2022-10-02T06:55:18.250Z,3.05
2022-10-02T06:58:08.805Z,2.70
2022-10-02T07:00:45.755Z,2.67
2022-10-02T07:03:24.123Z,2.67
2022-10-02T07:05:53.354Z,2.60
2022-10-02T07:08:28.144Z,2.63
2022-10-02T07:10:58.303Z,2.90
2022-10-02T07:13:28.297Z,2.72
2022-10-02T07:16:09.275Z,2.78
2022-10-02T07:18:54.486Z,2.87
2022-10-02T07:21:46.324Z,3.20
2022-10-02T07:24:39.741Z,2.95
2022-10-02T07:27:10.345Z,3.10
2022-10-02T07:29:46.052Z,2.75
2022-10-02T07:32:18.819Z,2.92
2022-10-02T07:34:48.875Z,3.00
2022-10-02T07:37:32.662Z,2.85
2022-10-02T07:40:29.027Z,2.88
2022-10-02T07:43:05.058Z,2.90
2022-10-02T07:45:42.748Z,3.10
2022-10-02T07:48:31.653Z,2.90
2022-10-02T07:51:40.677Z,2.88
2022-10-02T07:54:28.575Z,3.38
2022-10-02T07:56:58.146Z,2.90
2022-10-02T07:59:25.001Z,2.90
2022-10-02T08:01:51.926Z,3.10
2022-10-02T08:04:24.775Z,2.90
2022-10-02T08:06:53.283Z,3.05
2022-10-02T08:09:23.613Z,2.83
2022-10-02T08:11:58.488Z,2.85
2022-10-02T08:14:40.303Z,3.00
2022-10-02T08:17:31.292Z,2.78
2022-10-02T08:20:15.859Z,3.10
2022-10-02T08:23:07.512Z,2.85
2022-10-02T08:26:22.256Z,3.10
2022-10-02T08:29:05.719Z,2.95
2022-10-02T08:31:33.217Z,2.88
2022-10-02T08:34:20.940Z,3.03
2022-10-02T08:36:58.597Z,3.42
2022-10-02T08:39:40.261Z,2.80
2022-10-02T08:42:37.229Z,3.20
2022-10-02T08:45:38.790Z,3.20
2022-10-02T08:48:28.665Z,2.92
2022-10-02T08:51:25.652Z,3.20
2022-10-02T08:54:20.667Z,3.45
2022-10-02T08:56:58.525Z,2.97
2022-10-02T08:59:41.237Z,3.17
2022-10-02T09:02:45.180Z,3.13
2022-10-02T09:05:39.696Z,3.15
2022-10-02T09:08:45.023Z,3.55
2022-10-02T09:11:11.869Z,3.00
2022-10-02T09:14:14.762Z,2.50
2022-10-02T09:17:00.184Z,2.70
2022-10-02T09:19:48.931Z,2.58
2022-10-02T09:22:40.801Z,2.35
2022-10-02T09:25:34.955Z,2.47
2022-10-02T09:28:05.157Z,3.47
2022-10-02T09:30:57.708Z,3.08
2022-10-02T09:33:27.665Z,3.00
2022-10-02T09:36:03.626Z,3.05
2022-10-02T09:39:12.452Z,3.45
2022-10-02T09:42:00.792Z,3.13
2022-10-02T09:44:49.598Z,2.63
2022-10-02T09:47:23.266Z,2.80
2022-10-02T09:50:21.215Z,2.90
2022-10-02T09:53:09.254Z,2.55
2022-10-02T09:56:13.644Z,3.42
2022-10-02T09:59:03.917Z,2.78
2022-10-02T10:02:08.534Z,2.33
2022-10-02T10:05:05.520Z,2.03
2022-10-02T10:07:56.990Z,2.40
2022-10-02T10:10:39.072Z,2.45
2022-10-02T10:13:35.729Z,2.38
2022-10-02T10:16:33.991Z,2.50
2022-10-02T10:19:29.935Z,2.33
2022-10-02T10:22:14.802Z,2.05
2022-10-02T10:24:50.986Z,2.53
2022-10-02T10:27:47.349Z,2.42
2022-10-02T10:30:23.123Z,2.60
2022-10-02T10:32:53.062Z,2.05
2022-10-02T10:35:26.036Z,2.38
2022-10-02T10:38:33.060Z,2.47
2022-10-02T10:41:06.273Z,2.50
2022-10-02T10:43:51.277Z,1.92
2022-10-02T10:46:21.115Z,2.22
2022-10-02T10:49:00.671Z,2.20
2022-10-02T10:51:47.265Z,2.22
2022-10-02T10:54:26.165Z,1.90
2022-10-02T10:56:57.047Z,2.20
2022-10-02T10:59:49.305Z,2.40
2022-10-02T11:02:46.699Z,2.15
2022-10-02T11:05:16.320Z,2.20
2022-10-02T11:08:06.992Z,1.92
2022-10-02T11:10:52.047Z,2.28
2022-10-02T11:13:44.060Z,2.20
2022-10-02T11:16:36.463Z,2.08
2022-10-02T11:19:41.312Z,2.83
2022-10-02T11:22:46.006Z,2.22
2022-10-02T11:25:25.787Z,2.25
2022-10-02T11:28:07.950Z,1.95
2022-10-02T11:30:42.374Z,2.17
2022-10-02T11:33:41.917Z,2.17
2022-10-02T11:36:45.008Z,2.25
2022-10-02T11:39:14.798Z,2.00
2022-10-02T11:42:00.609Z,1.85
2022-10-02T11:44:59.304Z,1.98
2022-10-02T11:47:38.365Z,2.30
2022-10-02T11:50:44.365Z,1.98
2022-10-02T11:53:34.587Z,2.03
2022-10-02T11:56:23.290Z,2.13
2022-10-02T11:59:02.005Z,2.05
2022-10-02T12:01:42.229Z,2.17
2022-10-02T12:04:37.115Z,2.10
2022-10-02T12:07:10.047Z,1.98
2022-10-02T12:10:13.668Z,2.15
2022-10-02T12:13:02.571Z,2.15
2022-10-02T12:16:00.376Z,2.00
2022-10-02T12:18:50.049Z,2.10
2022-10-02T12:21:59.452Z,1.90
2022-10-02T12:24:54.853Z,2.45
2022-10-02T12:27:41.317Z,2.20
2022-10-02T12:30:13.117Z,2.03
2022-10-02T12:32:59.306Z,2.08
2022-10-02T12:35:39.796Z,2.42
2022-10-02T12:38:25.680Z,1.90
2022-10-02T12:41:07.529Z,2.28
2022-10-02T12:46:01.357Z,1.90
2022-10-02T12:48:49.585Z,2.03
2022-10-02T12:51:36.008Z,1.73
2022-10-02T12:54:44.826Z,2.15
2022-10-02T12:57:51.695Z,1.92
2022-10-02T13:00:21.913Z,1.88
2022-10-02T13:03:01.816Z,2.08
2022-10-02T13:05:47.596Z,1.98
2022-10-02T13:09:02.960Z,2.10
2022-10-02T13:11:44.988Z,1.88
2022-10-02T13:14:35.079Z,2.30
2022-10-02T13:17:16.856Z,1.80
2022-10-02T13:22:42.772Z,1.90
2022-10-02T13:25:34.555Z,2.17
2022-10-02T13:30:38.754Z,2.10
2022-10-02T13:33:25.240Z,2.08
2022-10-02T13:36:07.110Z,1.70
2022-10-02T13:38:55.839Z,1.58
2022-10-02T13:41:39.229Z,2.20
2022-10-02T13:44:25.114Z,1.88
2022-10-02T13:46:54.807Z,1.77
2022-10-02T13:49:24.540Z,2.17
2022-10-02T13:52:07.255Z,1.70
2022-10-02T13:54:40.127Z,1.80
2022-10-02T13:57:34.961Z,2.10
2022-10-02T14:00:38.883Z,1.83
2022-10-02T14:03:09.104Z,1.92
2022-10-02T14:05:57.796Z,2.10
2022-10-02T14:08:47.033Z,1.80
2022-10-02T14:11:29.123Z,1.77
2022-10-02T14:14:22.934Z,2.22
2022-10-02T14:17:14.391Z,1.67
2022-10-02T14:19:44.458Z,1.77
2022-10-02T14:22:34.146Z,1.70
2022-10-02T14:25:22.972Z,1.70
2022-10-02T14:28:08.692Z,2.15
2022-10-02T14:30:55.188Z,1.85
2022-10-02T14:33:40.973Z,1.85
2022-10-02T14:36:23.368Z,2.10
2022-10-02T14:38:50.273Z,2.15
2022-10-02T14:41:45.083Z,1.80
2022-10-02T14:44:16.111Z,1.60
2022-10-02T14:47:17.235Z,1.88
2022-10-02T14:50:17.312Z,1.90
2022-10-02T14:52:59.377Z,1.80
2022-10-02T14:55:34.592Z,1.85
2022-10-02T14:58:01.565Z,2.17
2022-10-02T15:01:00.338Z,1.90
2022-10-02T15:03:49.271Z,1.60
2022-10-02T15:06:16.133Z,1.80
2022-10-02T15:09:15.156Z,1.70
2022-10-02T15:11:42.038Z,1.90
2022-10-02T15:14:13.434Z,1.85
2022-10-02T15:17:06.885Z,1.80
2022-10-02T15:19:49.099Z,2.22
2022-10-02T15:22:27.644Z,1.80
2022-10-02T15:24:55.791Z,2.25
2022-10-02T15:27:29.162Z,1.92
2022-10-02T15:30:19.874Z,1.85
2022-10-02T15:32:59.201Z,1.90
2022-10-02T15:35:51.229Z,2.30
2022-10-02T15:38:48.137Z,2.50
2022-10-02T15:41:43.795Z,1.92
2022-10-02T15:44:21.430Z,1.60
2022-10-02T15:47:16.275Z,1.90
2022-10-02T15:49:52.372Z,1.98
2022-10-02T15:52:39.541Z,1.88
2022-10-02T15:55:06.598Z,2.00
2022-10-02T15:58:16.034Z,2.33
2022-10-02T16:01:15.326Z,1.83
2022-10-02T16:03:54.613Z,1.70
2022-10-02T16:06:30.589Z,1.92
2022-10-02T16:09:03.834Z,2.40
2022-10-02T16:12:01.783Z,2.15
2022-10-02T16:14:55.932Z,1.80
2022-10-02T16:17:41.722Z,1.60
2022-10-02T16:20:18.330Z,1.80
2022-10-02T16:23:03.678Z,1.75
2022-10-02T16:26:04.968Z,2.10
2022-10-02T16:28:41.515Z,1.50
2022-10-02T16:31:17.571Z,1.92
2022-10-02T16:33:53.469Z,1.80
2022-10-02T16:36:31.869Z,1.70
2022-10-02T16:39:03.988Z,1.80
2022-10-02T16:42:03.089Z,2.00
2022-10-02T16:45:03.114Z,1.90
2022-10-02T16:47:41.602Z,1.90
2022-10-02T16:50:47.720Z,1.92
2022-10-02T16:53:42.335Z,2.17
2022-10-02T16:56:25.680Z,2.15
2022-10-02T16:59:00.535Z,2.15
2022-10-02T17:01:34.170Z,2.00
2022-10-02T17:04:27.129Z,2.08
2022-10-02T17:07:19.868Z,2.08
2022-10-02T17:09:49.582Z,1.90
2022-10-02T17:12:35.104Z,2.10
2022-10-02T17:15:07.953Z,1.92
2022-10-02T17:17:51.202Z,2.10
2022-10-02T17:20:32.450Z,2.22
2022-10-02T17:23:16.521Z,2.45
2022-10-02T17:25:55.812Z,2.17
2022-10-02T17:28:26.251Z,2.55
2022-10-02T17:31:21.033Z,2.33
2022-10-02T17:33:58.366Z,2.25
2022-10-02T17:36:35.743Z,2.63
2022-10-02T17:39:23.315Z,2.65
2022-10-02T17:41:58.363Z,2.97
2022-10-02T17:44:46.981Z,2.58
2022-10-02T17:47:21.241Z,2.35
2022-10-02T17:49:54.345Z,2.40
2022-10-02T17:52:51.923Z,2.67
2022-10-02T17:56:02.248Z,2.50
2022-10-02T17:58:56.251Z,2.40
2022-10-02T18:01:26.704Z,2.92
2022-10-02T18:04:15.579Z,2.80
2022-10-02T18:07:05.617Z,2.90
2022-10-02T18:09:41.518Z,3.50
2022-10-02T18:12:42.294Z,3.60
2022-10-02T18:15:16.588Z,4.82
2022-10-02T18:17:53.126Z,4.20
2022-10-02T18:20:48.147Z,4.00
2022-10-02T18:23:28.018Z,3.47
2022-10-02T18:26:46.278Z,3.55
2022-10-02T18:29:36.488Z,4.00
2022-10-02T18:32:27.520Z,3.80
2022-10-02T18:35:09.498Z,4.00
2022-10-02T18:40:42.590Z,4.20
2022-10-02T18:43:21.160Z,4.10
2022-10-02T18:46:07.855Z,4.55
2022-10-02T18:48:41.211Z,4.22
2022-10-02T18:51:32.786Z,4.10
2022-10-02T18:54:21.431Z,4.35
2022-10-02T18:57:35.865Z,4.47
2022-10-02T19:00:10.658Z,4.20
2022-10-02T19:02:52.622Z,4.43
2022-10-02T19:08:04.844Z,4.88
2022-10-02T19:10:31.915Z,4.63
2022-10-02T19:13:21.778Z,5.03
2022-10-02T19:15:50.747Z,4.55
2022-10-02T19:18:25.815Z,5.38
2022-10-02T19:21:15.448Z,4.80
2022-10-02T19:23:53.573Z,5.20
2022-10-02T19:26:33.104Z,5.40
2022-10-02T19:29:06.712Z,5.57
2022-10-02T19:31:36.536Z,5.82
2022-10-02T19:34:14.416Z,5.70
2022-10-02T19:36:44.545Z,5.10
2022-10-02T19:39:26.367Z,6.03
2022-10-02T19:41:55.479Z,6.38
2022-10-02T19:44:28.330Z,5.70
2022-10-02T19:46:57.509Z,6.43
2022-10-02T19:49:34.158Z,5.63
2022-10-02T19:52:01.352Z,5.90
2022-10-02T19:54:33.248Z,5.75
2022-10-02T19:59:41.877Z,6.20
2022-10-02T20:02:21.693Z,6.28
2022-10-02T20:04:48.974Z,5.68
2022-10-02T20:07:17.897Z,6.32
2022-10-02T20:09:47.922Z,5.35
2022-10-02T20:12:30.976Z,6.18
2022-10-02T20:15:02.588Z,5.80
2022-10-02T20:17:30.121Z,5.78
2022-10-02T20:19:59.169Z,6.05
2022-10-02T20:22:48.425Z,5.38
2022-10-02T20:25:29.169Z,6.00
2022-10-02T20:28:10.834Z,6.20
2022-10-02T20:30:47.771Z,5.45
2022-10-02T20:33:24.508Z,5.82
2022-10-02T20:36:03.339Z,6.05
2022-10-02T20:39:09.871Z,5.63
2022-10-02T20:41:46.793Z,5.45
2022-10-02T20:44:13.722Z,5.45
2022-10-02T20:47:02.538Z,6.07
2022-10-02T20:49:41.522Z,6.13
2022-10-02T20:52:30.177Z,5.75
2022-10-02T20:55:15.841Z,5.85
2022-10-02T20:58:13.653Z,5.70
2022-10-02T21:01:06.784Z,6.13
2022-10-02T21:03:41.759Z,5.95
2022-10-02T21:06:31.995Z,5.85
2022-10-02T21:09:07.342Z,6.53
2022-10-02T21:11:46.653Z,6.10
2022-10-02T21:14:25.417Z,6.65
2022-10-02T21:17:17.332Z,6.50
2022-10-02T21:20:03.130Z,6.88
2022-10-02T21:22:36.291Z,6.47
2022-10-02T21:25:26.191Z,6.60
2022-10-02T21:28:14.856Z,7.07
2022-10-02T21:30:47.773Z,6.32
2022-10-02T21:33:19.593Z,6.40
2022-10-02T21:35:56.369Z,5.70
2022-10-02T21:38:48.643Z,6.57
2022-10-02T21:41:40.254Z,6.35
2022-10-02T21:44:36.972Z,6.43
2022-10-02T21:47:31.550Z,5.82
2022-10-02T21:50:22.563Z,5.75
2022-10-02T21:53:11.346Z,5.40
2022-10-02T21:56:00.049Z,5.82
2022-10-02T21:59:04.982Z,5.35
2022-10-02T22:01:42.633Z,5.45
2022-10-02T22:04:53.731Z,5.13
2022-10-02T22:07:38.137Z,5.22
2022-10-02T22:10:11.038Z,5.15
2022-10-02T22:12:44.215Z,5.18
2022-10-02T22:15:20.147Z,5.20
2022-10-02T22:17:48.657Z,6.50
2022-10-02T22:20:43.336Z,5.68
2022-10-02T22:23:41.366Z,5.80
2022-10-02T22:26:14.085Z,5.60
2022-10-02T22:28:46.007Z,5.78
2022-10-02T22:33:57.607Z,6.40
2022-10-02T22:36:45.656Z,6.70
2022-10-02T22:39:20.869Z,6.53
2022-10-02T22:41:59.682Z,6.55
2022-10-02T22:44:55.950Z,6.22
2022-10-02T22:48:04.316Z,5.53
2022-10-02T22:50:36.518Z,6.40
2022-10-02T22:53:16.809Z,6.10
2022-10-02T22:55:57.391Z,6.68
2022-10-02T22:58:39.990Z,6.22
2022-10-02T23:01:19.365Z,6.50
2022-10-02T23:04:03.775Z,6.03
2022-10-02T23:06:34.992Z,6.28
2022-10-02T23:09:15.973Z,6.13
2022-10-02T23:12:07.091Z,6.00
2022-10-02T23:14:49.290Z,6.60
2022-10-02T23:17:24.997Z,5.80
2022-10-02T23:19:59.593Z,5.85
2022-10-02T23:22:47.408Z,6.40
2022-10-02T23:25:29.169Z,5.82
2022-10-02T23:28:02.129Z,6.50
2022-10-02T23:30:29.821Z,5.65
2022-10-02T23:33:15.856Z,5.43
2022-10-02T23:35:49.187Z,5.38
2022-10-02T23:38:28.085Z,6.18
2022-10-02T23:41:16.466Z,6.00
2022-10-02T23:44:08.691Z,6.13
2022-10-02T23:46:50.837Z,5.35
2022-10-02T23:51:52.106Z,5.50
2022-10-02T23:54:31.167Z,5.50
2022-10-02T23:57:03.970Z,5.70
2022-10-02T23:59:51.964Z,5.57
